Time;durP1;ratioP1;P1;durP2;ratioP2;P2;SDS_P1;SDS_P2;PMS_P1;PMS_P2;Temp;Humidity;BMP_temperature;BMP_pressure;BME280_temperature;BME280_humidity;BME280_pressure;Samples;Min_cycle;Max_cycle;Signal;HPM_P1;HPM_P2
2024/01/09 16:33:56;;;;;;;121.30;41.67;;;-8.00;99.90;;;;;;5102318;27;20443;-54
2024/01/09 16:36:22;;;;;;;144.43;46.95;;;-8.20;99.90;;;;;;5103928;28;20032;-56
2024/01/09 16:38:48;;;;;;;146.98;56.97;;;-8.30;99.90;;;;;;5103120;28;20028;-58
2024/01/09 16:41:14;;;;;;;133.77;50.65;;;-8.30;99.90;;;;;;5103985;28;20128;-60
2024/01/09 16:43:40;;;;;;;146.45;50.60;;;-8.30;99.90;;;;;;5102102;28;20479;-59
2024/01/09 16:46:06;;;;;;;158.90;54.78;;;-8.40;99.90;;;;;;5103328;28;20062;-54
2024/01/09 16:48:33;;;;;;;142.65;53.22;;;-8.40;99.90;;;;;;5100809;28;20059;-57
2024/01/09 16:50:59;;;;;;;154.38;55.33;;;-8.70;99.90;;;;;;5103192;28;20031;-60
2024/01/09 16:53:25;;;;;;;164.90;57.87;;;-9.00;99.90;;;;;;5103225;28;20075;-57
2024/01/09 16:55:54;;;;;;;142.90;52.67;;;-8.90;99.90;;;;;;5103498;28;20161;-60
2024/01/09 16:58:22;;;;;;;129.90;49.70;;;-8.90;99.90;;;;;;5103031;28;20032;-56
2024/01/09 17:00:48;;;;;;;180.60;64.60;;;-9.10;99.90;;;;;;5102742;28;20035;-58
2024/01/09 17:03:15;;;;;;;;;;;-9.10;99.90;;;;;;5104004;28;20057;-56
2024/01/09 17:05:42;;;;;;;393.10;170.57;;;-9.00;99.90;;;;;;5102613;28;19912;-58
2024/01/09 17:08:08;;;;;;;285.02;127.70;;;-9.20;99.90;;;;;;5102835;28;20046;-57
2024/01/09 17:10:34;;;;;;;228.52;90.05;;;-9.40;99.90;;;;;;5102118;28;20042;-59
2024/01/09 17:13:00;;;;;;;273.50;125.55;;;-9.50;99.90;;;;;;5103172;28;20510;-59
2024/01/09 17:15:26;;;;;;;203.13;79.40;;;-9.50;99.90;;;;;;5103698;28;20503;-58
2024/01/09 17:17:56;;;;;;;217.40;75.43;;;-9.70;99.90;;;;;;5102964;28;20031;-57
2024/01/09 17:20:22;;;;;;;199.30;72.38;;;-9.60;99.90;;;;;;5102467;28;20023;-58
2024/01/09 17:22:49;;;;;;;204.10;70.20;;;-9.40;99.90;;;;;;5101988;28;20023;-58
2024/01/09 17:25:15;;;;;;;192.32;71.20;;;-9.30;99.90;;;;;;5102609;28;20486;-57
2024/01/09 17:27:41;;;;;;;;;;;-9.40;99.90;;;;;;5100484;28;20047;-59
2024/01/09 17:30:09;;;;;;;197.10;65.75;;;-9.40;99.90;;;;;;5102738;28;19908;-57
2024/01/09 17:32:34;;;;;;;188.25;69.88;;;-9.20;99.90;;;;;;5100298;28;20083;-55
2024/01/09 17:35:01;;;;;;;202.77;70.93;;;-9.30;99.90;;;;;;5099632;28;20089;-58
2024/01/09 17:37:26;;;;;;;197.00;68.30;;;-9.30;99.90;;;;;;5101590;28;20270;-62
2024/01/09 17:39:52;;;;;;;178.00;68.37;;;-9.40;99.90;;;;;;5101726;28;20090;-59
2024/01/09 17:42:18;;;;;;;169.70;61.22;;;-9.30;99.90;;;;;;5102387;28;20024;-57
2024/01/09 17:44:44;;;;;;;150.17;56.07;;;-9.30;99.90;;;;;;5089710;28;20592;-57
2024/01/09 17:47:09;;;;;;;177.13;58.83;;;-9.30;99.90;;;;;;5089297;28;20274;-57
2024/01/09 17:49:35;;;;;;;169.53;59.00;;;-9.40;99.90;;;;;;5089314;28;20039;-58
2024/01/09 17:52:01;;;;;;;151.23;57.77;;;-9.50;99.90;;;;;;5088490;28;20043;-60
2024/01/09 17:54:36;;;;;;;156.60;55.30;;;-9.50;99.90;;;;;;5087425;28;20506;-58
2024/01/09 17:57:05;;;;;;;168.77;60.28;;;-9.60;99.90;;;;;;5087314;28;20983;-57
2024/01/09 17:59:30;;;;;;;156.63;55.87;;;-9.60;99.90;;;;;;5086598;28;20039;-59
2024/01/09 18:01:56;;;;;;;160.27;60.03;;;-9.60;99.90;;;;;;5086250;28;20035;-61
2024/01/09 18:04:22;;;;;;;148.40;54.57;;;-9.70;99.90;;;;;;5087530;28;20038;-62
2024/01/09 18:06:49;;;;;;;143.40;57.90;;;-9.70;99.90;;;;;;5087572;28;20017;-57
2024/01/09 18:09:44;;;;;;;;;;;-9.80;99.90;;;;;;5088293;28;20032;-55
2024/01/09 18:12:19;;;;;;;157.90;54.88;;;-10.00;99.90;;;;;;5086077;28;20002;-60
2024/01/09 18:14:52;;;;;;;153.30;56.47;;;-10.10;99.90;;;;;;5069947;28;20157;-58
2024/01/09 18:17:18;;;;;;;148.15;54.80;;;-10.00;99.90;;;;;;5068874;28;20129;-56
2024/01/09 18:19:44;;;;;;;145.23;53.30;;;-10.00;99.90;;;;;;5085549;28;20031;-60
2024/01/09 18:22:09;;;;;;;157.15;60.15;;;-10.10;99.90;;;;;;5087481;28;20028;-59
2024/01/09 18:24:41;;;;;;;181.67;66.60;;;-10.10;99.90;;;;;;5085635;28;20127;-57
2024/01/09 18:27:07;;;;;;;175.35;62.90;;;-10.00;99.90;;;;;;5080082;28;20274;-59
2024/01/09 18:29:33;;;;;;;169.80;58.10;;;-9.90;99.90;;;;;;5087191;28;20032;-57
2024/01/09 18:31:58;;;;;;;167.88;65.38;;;-10.00;99.90;;;;;;5087853;28;20310;-58
2024/01/09 18:34:24;;;;;;;174.00;63.27;;;-10.10;99.90;;;;;;5088166;28;20069;-54
2024/01/09 18:36:50;;;;;;;170.30;58.53;;;-10.30;99.90;;;;;;5087648;28;20035;-56
2024/01/09 18:39:19;;;;;;;150.52;57.60;;;-10.60;99.90;;;;;;5087392;28;20105;-56
2024/01/09 18:41:46;;;;;;;174.18;63.80;;;-11.00;99.90;;;;;;5087506;28;20344;-57
2024/01/09 18:44:12;;;;;;;168.77;60.53;;;-10.90;99.90;;;;;;5087582;28;20656;-58
2024/01/09 18:46:37;;;;;;;168.33;61.27;;;-10.80;99.90;;;;;;5086456;28;20024;-59
2024/01/09 19:07:08;;;;;;;187.73;63.50;;;-10.60;99.90;;;;;;5082938;27;21017;-59
2024/01/09 19:09:34;;;;;;;183.77;64.63;;;-10.70;99.90;;;;;;5073599;28;20037;-57
2024/01/09 19:12:00;;;;;;;189.38;68.30;;;-10.70;99.90;;;;;;5077520;28;20036;-58
2024/01/09 19:14:26;;;;;;;188.37;67.13;;;-10.80;99.90;;;;;;5044847;28;20691;-61
2024/01/09 19:16:53;;;;;;;210.60;77.50;;;-10.70;99.90;;;;;;5033803;28;20832;-58
2024/01/09 19:19:21;;;;;;;230.73;82.40;;;-10.60;99.90;;;;;;5035723;28;20444;-58
2024/01/09 19:21:49;;;;;;;236.60;87.00;;;-10.60;99.90;;;;;;5033911;28;20044;-59
2024/01/09 19:24:16;;;;;;;227.25;79.80;;;-10.70;99.90;;;;;;5035881;28;20083;-61
2024/01/09 19:26:43;;;;;;;225.05;82.72;;;-10.80;99.90;;;;;;5035915;28;22039;-56
2024/01/09 19:29:09;;;;;;;222.18;79.53;;;-10.80;99.90;;;;;;5034874;28;20039;-58
2024/01/09 19:31:44;;;;;;;187.73;66.93;;;-10.70;99.90;;;;;;5032768;28;20597;-59
2024/01/09 19:34:11;;;;;;;218.77;75.00;;;-10.80;99.90;;;;;;5034607;28;20037;-58
2024/01/09 19:36:37;;;;;;;221.55;75.63;;;-10.80;99.90;;;;;;5034668;28;20455;-59
2024/01/09 19:39:03;;;;;;;220.80;76.18;;;-10.90;99.90;;;;;;5035849;28;20032;-60
2024/01/09 19:41:29;;;;;;;208.65;75.65;;;-10.90;99.90;;;;;;5031530;28;20547;-63
2024/01/09 19:43:55;;;;;;;202.80;73.47;;;-11.00;99.90;;;;;;5033079;28;20066;-59
2024/01/09 19:46:21;;;;;;;231.53;81.80;;;-11.10;99.90;;;;;;5034699;28;20112;-58
2024/01/09 19:48:46;;;;;;;167.27;57.72;;;-11.20;99.90;;;;;;5033519;28;20339;-58
2024/01/09 19:51:12;;;;;;;229.27;81.05;;;-11.20;99.90;;;;;;5031280;28;20124;-60
2024/01/09 19:53:39;;;;;;;256.73;90.47;;;-11.10;99.90;;;;;;5034494;28;20032;-60
2024/01/09 19:56:05;;;;;;;265.30;94.25;;;-11.10;99.90;;;;;;5035649;28;20028;-60
2024/01/09 19:58:31;;;;;;;315.52;107.28;;;-11.00;99.90;;;;;;5035116;28;20036;-58
2024/01/09 20:00:57;;;;;;;325.58;116.05;;;-11.00;99.90;;;;;;5031929;28;20029;-58
2024/01/09 20:03:22;;;;;;;307.77;115.35;;;-11.10;99.90;;;;;;5033494;28;20491;-61
2024/01/09 20:05:48;;;;;;;396.17;148.95;;;-11.20;99.90;;;;;;5035065;28;20053;-58
2024/01/09 20:08:14;;;;;;;400.77;154.48;;;-11.20;99.90;;;;;;5035495;28;21070;-61
2024/01/09 20:10:41;;;;;;;415.47;163.50;;;-11.20;99.90;;;;;;5035266;28;20112;-56
2024/01/09 20:13:08;;;;;;;485.98;199.15;;;-11.10;99.90;;;;;;5031998;28;20546;-57
2024/01/09 20:15:34;;;;;;;532.22;224.23;;;-11.10;99.90;;;;;;5035753;28;20492;-59
2024/01/09 20:18:01;;;;;;;509.20;218.37;;;-11.30;99.90;;;;;;5024899;28;20579;-59
2024/01/09 20:20:27;;;;;;;543.03;229.77;;;-11.20;99.90;;;;;;5022269;28;20306;-59
2024/01/09 20:22:53;;;;;;;543.50;236.65;;;-11.20;99.90;;;;;;5018185;28;20496;-61
2024/01/09 20:25:18;;;;;;;564.90;241.13;;;-11.20;99.90;;;;;;5022115;28;20052;-60
2024/01/09 20:27:44;;;;;;;538.23;236.23;;;-11.10;99.90;;;;;;5023814;28;20532;-57
2024/01/09 20:30:11;;;;;;;557.13;243.38;;;-11.10;99.90;;;;;;5022530;28;20123;-59
2024/01/09 20:32:41;;;;;;;572.53;244.25;;;-11.10;99.90;;;;;;5019649;28;20543;-58
2024/01/09 20:35:08;;;;;;;566.78;237.75;;;-11.10;99.90;;;;;;5024314;28;20396;-57
2024/01/09 20:37:35;;;;;;;555.40;229.52;;;-11.00;99.90;;;;;;5024844;28;20203;-59
2024/01/09 20:40:01;;;;;;;494.13;203.80;;;-11.10;99.90;;;;;;5024399;28;20036;-56
2024/01/09 20:42:27;;;;;;;489.60;192.82;;;-11.30;99.90;;;;;;5021988;28;20073;-58
2024/01/09 20:44:53;;;;;;;456.90;186.63;;;-11.30;99.90;;;;;;5022812;28;20037;-61
2024/01/09 20:47:19;;;;;;;467.40;191.80;;;-11.40;99.90;;;;;;5023178;28;20107;-57
2024/01/09 20:49:47;;;;;;;453.35;173.07;;;-11.50;99.90;;;;;;5022357;28;20106;-60
2024/01/09 20:52:12;;;;;;;444.85;162.85;;;-11.60;99.90;;;;;;5020872;28;21505;-59
2024/01/09 20:54:38;;;;;;;321.20;118.82;;;-11.40;99.90;;;;;;5021262;28;20098;-59
2024/01/09 20:57:04;;;;;;;383.58;137.90;;;-11.50;99.90;;;;;;5024282;28;20040;-60
2024/01/09 20:59:29;;;;;;;372.03;129.63;;;-11.50;99.90;;;;;;5024663;28;20049;-58
2024/01/09 21:01:55;;;;;;;340.02;125.05;;;-11.40;99.90;;;;;;5019634;28;20291;-59
2024/01/09 21:04:21;;;;;;;337.00;126.03;;;-11.60;99.90;;;;;;5022206;28;20053;-58
2024/01/09 21:06:47;;;;;;;376.27;131.10;;;-11.80;99.90;;;;;;5022785;28;20067;-56
2024/01/09 21:09:13;;;;;;;369.65;138.60;;;-12.00;99.90;;;;;;5023320;28;20446;-58
2024/01/09 21:11:39;;;;;;;373.38;136.27;;;-12.00;99.90;;;;;;5019634;28;20136;-61
2024/01/09 21:14:05;;;;;;;377.83;137.20;;;-12.00;99.90;;;;;;5021046;28;20036;-56
2024/01/09 21:16:31;;;;;;;313.48;118.70;;;-11.90;99.90;;;;;;5022579;28;20909;-58
2024/01/09 21:18:57;;;;;;;310.85;121.05;;;-11.80;99.90;;;;;;5021944;28;20032;-56
2024/01/09 21:21:23;;;;;;;333.20;123.30;;;-11.70;99.90;;;;;;5018985;28;20048;-58
2024/01/09 21:23:49;;;;;;;301.92;109.90;;;-11.70;99.90;;;;;;5021475;28;20284;-60
2024/01/09 21:26:14;;;;;;;272.10;103.93;;;-11.60;99.90;;;;;;5022398;28;20049;-54
2024/01/09 21:28:41;;;;;;;273.77;105.30;;;-11.60;99.90;;;;;;5020529;28;20021;-58
2024/01/09 21:31:06;;;;;;;262.38;97.88;;;-11.50;99.90;;;;;;5019279;28;20047;-57
2024/01/09 21:33:33;;;;;;;272.98;104.85;;;-11.70;99.90;;;;;;5020825;28;20028;-54
2024/01/09 21:35:59;;;;;;;269.48;98.88;;;-11.70;99.90;;;;;;5021997;28;20029;-60
2024/01/09 21:38:25;;;;;;;281.73;103.57;;;-11.70;99.90;;;;;;5021995;28;20029;-56
2024/01/09 21:40:54;;;;;;;263.98;100.57;;;-11.70;99.90;;;;;;4999868;28;20040;-58
2024/01/09 21:43:19;;;;;;;292.25;106.95;;;-11.70;99.90;;;;;;5020342;28;20040;-59
2024/01/09 21:45:45;;;;;;;277.35;101.53;;;-11.70;99.90;;;;;;5021327;28;20124;-60
2024/01/09 21:48:14;;;;;;;300.63;107.78;;;-11.70;99.90;;;;;;5021542;28;20104;-59
2024/01/09 21:50:39;;;;;;;265.63;102.43;;;-11.90;99.90;;;;;;5021564;28;20160;-62
2024/01/09 21:53:05;;;;;;;264.02;98.65;;;-12.00;99.90;;;;;;5018749;28;20090;-56
2024/01/09 21:55:31;;;;;;;267.00;95.40;;;-12.10;99.90;;;;;;5020390;28;20052;-61
2024/01/09 21:57:57;;;;;;;254.48;93.75;;;-12.00;99.90;;;;;;5020518;28;20044;-60
2024/01/09 22:00:23;;;;;;;261.55;92.22;;;-12.10;99.90;;;;;;5021493;28;20036;-57
2024/01/09 22:02:49;;;;;;;213.77;79.78;;;-12.00;99.90;;;;;;5017593;28;20033;-58
2024/01/09 22:05:14;;;;;;;234.55;88.32;;;-12.00;99.90;;;;;;5020666;28;20407;-59
2024/01/09 22:07:40;;;;;;;246.63;90.85;;;-12.00;99.90;;;;;;5021123;28;20036;-57
2024/01/09 22:10:06;;;;;;;278.03;103.20;;;-12.00;99.90;;;;;;5020258;28;20036;-54
2024/01/09 22:12:32;;;;;;;266.70;97.93;;;-12.00;99.90;;;;;;5017098;28;20287;-60
2024/01/09 22:14:58;;;;;;;253.65;95.82;;;-12.10;99.90;;;;;;5016715;28;20037;-58
2024/01/09 22:17:26;;;;;;;229.77;85.00;;;-12.10;99.90;;;;;;5020642;28;20776;-58
2024/01/09 22:19:52;;;;;;;231.38;85.82;;;-12.20;99.90;;;;;;5020771;28;20416;-59
2024/01/09 22:22:18;;;;;;;219.73;81.40;;;-12.30;99.90;;;;;;5017903;28;20067;-58
2024/01/09 22:24:43;;;;;;;224.23;84.85;;;-12.20;99.90;;;;;;5020101;28;20143;-58
2024/01/09 22:27:09;;;;;;;213.85;79.72;;;-12.20;99.90;;;;;;5021805;28;20048;-62
2024/01/09 22:29:36;;;;;;;217.30;75.45;;;-12.20;99.90;;;;;;5020382;28;20033;-56
2024/01/09 22:32:03;;;;;;;226.10;79.07;;;-12.30;99.90;;;;;;5017784;28;20037;-57
2024/01/09 22:34:28;;;;;;;237.82;77.43;;;-12.30;99.90;;;;;;5020565;28;20064;-57
2024/01/09 22:36:54;;;;;;;248.52;80.93;;;-12.20;99.90;;;;;;5020801;28;20029;-58
2024/01/09 22:39:20;;;;;;;225.23;80.22;;;-12.30;99.90;;;;;;5020035;28;21268;-57
2024/01/09 22:41:47;;;;;;;244.00;83.10;;;-12.40;99.90;;;;;;5017636;28;21153;-60
2024/01/09 22:44:13;;;;;;;228.07;84.97;;;-12.40;99.90;;;;;;5019783;28;20045;-58
2024/01/09 22:46:39;;;;;;;255.27;91.00;;;-12.40;99.90;;;;;;5019880;28;20118;-58
2024/01/09 22:49:05;;;;;;;257.92;92.03;;;-12.50;99.90;;;;;;5019112;28;20467;-59
2024/01/09 22:51:31;;;;;;;257.35;86.72;;;-12.40;99.90;;;;;;5037360;28;20043;-58
2024/01/09 22:53:57;;;;;;;267.05;91.47;;;-12.50;99.90;;;;;;5055952;28;20044;-56
2024/01/09 22:56:22;;;;;;;252.55;86.82;;;-12.60;99.90;;;;;;5055023;28;20127;-58
2024/01/09 22:58:48;;;;;;;244.40;86.55;;;-12.60;99.90;;;;;;5055180;28;20119;-58
2024/01/09 23:01:13;;;;;;;273.42;92.72;;;-12.80;99.90;;;;;;5054148;28;20036;-57
2024/01/09 23:03:39;;;;;;;244.38;87.75;;;-12.80;99.90;;;;;;5060578;28;20127;-59
2024/01/09 23:06:05;;;;;;;246.90;87.78;;;-12.60;99.90;;;;;;5053693;28;20080;-57
2024/01/09 23:08:31;;;;;;;249.52;89.07;;;-12.60;99.90;;;;;;5052637;28;20025;-59
2024/01/09 23:10:56;;;;;;;246.20;84.57;;;-12.60;99.90;;;;;;5056020;28;20094;-56
2024/01/09 23:13:22;;;;;;;244.02;86.97;;;-12.60;99.90;;;;;;5055506;28;20036;-59
2024/01/09 23:15:48;;;;;;;265.23;94.85;;;-12.60;99.90;;;;;;5057500;28;20028;-59
2024/01/09 23:18:14;;;;;;;339.90;116.85;;;-12.70;99.90;;;;;;5056145;28;20024;-60
2024/01/09 23:20:39;;;;;;;425.05;148.77;;;-12.60;99.90;;;;;;5055653;28;20025;-58
2024/01/09 23:23:05;;;;;;;418.50;157.23;;;-12.70;99.90;;;;;;5054638;28;20029;-59
2024/01/09 23:25:31;;;;;;;415.60;143.73;;;-12.70;99.90;;;;;;5046754;28;20064;-56
2024/01/09 23:27:57;;;;;;;403.60;142.07;;;-12.60;99.90;;;;;;5046974;28;20037;-58
2024/01/09 23:30:23;;;;;;;487.42;167.07;;;-12.60;99.90;;;;;;5046746;28;20041;-56
